sensor_id;sensor_type;location;lat;lon;timestamp;P1;durP1;ratioP1;P2;durP2;ratioP2
59193;SDS011;44967;48.598;15.650;2022-12-18T00:01:16;8.73;;;4.88;;
59193;SDS011;44967;48.598;15.650;2022-12-18T00:03:54;8.45;;;4.10;;
59193;SDS011;44967;48.598;15.650;2022-12-18T00:06:21;5.85;;;4.13;;
59193;SDS011;44967;48.598;15.650;2022-12-18T00:08:47;6.70;;;4.18;;
59193;SDS011;44967;48.598;15.650;2022-12-18T00:11:15;6.40;;;3.72;;
59193;SDS011;44967;48.598;15.650;2022-12-18T00:13:44;7.03;;;4.40;;
59193;SDS011;44967;48.598;15.650;2022-12-18T00:16:14;8.73;;;4.25;;
59193;SDS011;44967;48.598;15.650;2022-12-18T00:18:42;7.38;;;4.07;;
59193;SDS011;44967;48.598;15.650;2022-12-18T00:21:08;9.80;;;4.35;;
59193;SDS011;44967;48.598;15.650;2022-12-18T00:23:36;6.82;;;4.07;;
59193;SDS011;44967;48.598;15.650;2022-12-18T00:26:04;7.53;;;4.07;;
59193;SDS011;44967;48.598;15.650;2022-12-18T00:28:31;7.90;;;4.70;;
59193;SDS011;44967;48.598;15.650;2022-12-18T00:31:05;10.02;;;4.63;;
59193;SDS011;44967;48.598;15.650;2022-12-18T00:33:33;9.40;;;5.00;;
59193;SDS011;44967;48.598;15.650;2022-12-18T00:36:03;6.57;;;4.13;;
59193;SDS011;44967;48.598;15.650;2022-12-18T00:38:39;8.52;;;4.30;;
59193;SDS011;44967;48.598;15.650;2022-12-18T00:41:06;7.10;;;4.35;;
59193;SDS011;44967;48.598;15.650;2022-12-18T00:43:33;8.00;;;4.25;;
59193;SDS011;44967;48.598;15.650;2022-12-18T00:45:59;5.80;;;4.15;;
59193;SDS011;44967;48.598;15.650;2022-12-18T00:48:24;9.05;;;4.38;;
59193;SDS011;44967;48.598;15.650;2022-12-18T00:50:50;8.32;;;4.50;;
59193;SDS011;44967;48.598;15.650;2022-12-18T00:53:16;8.43;;;4.63;;
59193;SDS011;44967;48.598;15.650;2022-12-18T00:55:43;6.10;;;4.07;;
59193;SDS011;44967;48.598;15.650;2022-12-18T00:58:09;10.07;;;4.53;;
59193;SDS011;44967;48.598;15.650;2022-12-18T01:00:36;7.40;;;4.35;;
59193;SDS011;44967;48.598;15.650;2022-12-18T01:03:02;5.55;;;4.40;;
59193;SDS011;44967;48.598;15.650;2022-12-18T01:05:28;6.82;;;3.60;;
59193;SDS011;44967;48.598;15.650;2022-12-18T01:07:55;5.53;;;3.55;;
59193;SDS011;44967;48.598;15.650;2022-12-18T01:10:21;7.90;;;4.25;;
59193;SDS011;44967;48.598;15.650;2022-12-18T01:12:46;8.27;;;4.95;;
59193;SDS011;44967;48.598;15.650;2022-12-18T01:15:13;10.68;;;4.32;;
59193;SDS011;44967;48.598;15.650;2022-12-18T01:17:40;8.82;;;4.40;;
59193;SDS011;44967;48.598;15.650;2022-12-18T01:20:07;7.95;;;4.35;;
59193;SDS011;44967;48.598;15.650;2022-12-18T01:22:34;7.40;;;4.05;;
59193;SDS011;44967;48.598;15.650;2022-12-18T01:25:01;6.10;;;3.92;;
59193;SDS011;44967;48.598;15.650;2022-12-18T01:27:27;7.18;;;4.03;;
59193;SDS011;44967;48.598;15.650;2022-12-18T01:29:53;7.65;;;4.47;;
59193;SDS011;44967;48.598;15.650;2022-12-18T01:32:19;9.10;;;3.83;;
59193;SDS011;44967;48.598;15.650;2022-12-18T01:34:45;8.60;;;4.43;;
59193;SDS011;44967;48.598;15.650;2022-12-18T01:37:11;7.18;;;3.88;;
59193;SDS011;44967;48.598;15.650;2022-12-18T01:39:36;4.95;;;3.65;;
59193;SDS011;44967;48.598;15.650;2022-12-18T01:42:02;8.30;;;4.38;;
59193;SDS011;44967;48.598;15.650;2022-12-18T01:50:17;9.65;;;4.65;;
59193;SDS011;44967;48.598;15.650;2022-12-18T01:52:53;8.63;;;3.72;;
59193;SDS011;44967;48.598;15.650;2022-12-18T01:55:22;5.18;;;3.55;;
59193;SDS011;44967;48.598;15.650;2022-12-18T01:57:53;6.40;;;3.72;;
59193;SDS011;44967;48.598;15.650;2022-12-18T02:00:21;7.88;;;3.90;;
59193;SDS011;44967;48.598;15.650;2022-12-18T02:02:49;5.72;;;3.15;;
59193;SDS011;44967;48.598;15.650;2022-12-18T02:05:16;8.27;;;3.92;;
59193;SDS011;44967;48.598;15.650;2022-12-18T02:10:43;6.80;;;3.97;;
59193;SDS011;44967;48.598;15.650;2022-12-18T02:13:19;6.03;;;3.30;;
59193;SDS011;44967;48.598;15.650;2022-12-18T02:18:36;8.52;;;4.03;;
59193;SDS011;44967;48.598;15.650;2022-12-18T02:26:49;5.55;;;3.47;;
59193;SDS011;44967;48.598;15.650;2022-12-18T02:29:23;7.63;;;4.60;;
59193;SDS011;44967;48.598;15.650;2022-12-18T02:31:53;6.47;;;3.97;;
59193;SDS011;44967;48.598;15.650;2022-12-18T02:34:22;7.90;;;3.92;;
59193;SDS011;44967;48.598;15.650;2022-12-18T02:36:51;8.93;;;4.05;;
59193;SDS011;44967;48.598;15.650;2022-12-18T02:39:19;6.43;;;4.20;;
59193;SDS011;44967;48.598;15.650;2022-12-18T02:41:47;7.25;;;4.13;;
59193;SDS011;44967;48.598;15.650;2022-12-18T02:44:13;9.35;;;4.80;;
59193;SDS011;44967;48.598;15.650;2022-12-18T02:46:43;5.32;;;3.80;;
59193;SDS011;44967;48.598;15.650;2022-12-18T02:49:21;8.18;;;4.18;;
59193;SDS011;44967;48.598;15.650;2022-12-18T02:52:07;6.45;;;4.18;;
59193;SDS011;44967;48.598;15.650;2022-12-18T02:57:50;7.55;;;3.97;;
59193;SDS011;44967;48.598;15.650;2022-12-18T03:00:19;6.63;;;4.13;;
59193;SDS011;44967;48.598;15.650;2022-12-18T03:10:32;6.43;;;4.43;;
59193;SDS011;44967;48.598;15.650;2022-12-18T03:13:13;5.25;;;3.35;;
59193;SDS011;44967;48.598;15.650;2022-12-18T03:15:45;7.40;;;3.95;;
59193;SDS011;44967;48.598;15.650;2022-12-18T03:18:21;6.07;;;3.47;;
59193;SDS011;44967;48.598;15.650;2022-12-18T03:20:51;7.90;;;4.68;;
59193;SDS011;44967;48.598;15.650;2022-12-18T03:23:24;6.10;;;4.20;;
59193;SDS011;44967;48.598;15.650;2022-12-18T03:25:55;7.47;;;3.83;;
59193;SDS011;44967;48.598;15.650;2022-12-18T03:28:24;7.55;;;4.70;;
59193;SDS011;44967;48.598;15.650;2022-12-18T03:30:53;9.98;;;4.55;;
59193;SDS011;44967;48.598;15.650;2022-12-18T03:33:25;8.45;;;4.32;;
59193;SDS011;44967;48.598;15.650;2022-12-18T03:35:55;10.63;;;5.13;;
59193;SDS011;44967;48.598;15.650;2022-12-18T03:38:21;6.72;;;4.32;;
59193;SDS011;44967;48.598;15.650;2022-12-18T03:43:29;7.65;;;4.65;;
59193;SDS011;44967;48.598;15.650;2022-12-18T03:49:11;10.70;;;4.28;;
59193;SDS011;44967;48.598;15.650;2022-12-18T03:51:50;7.68;;;4.13;;
59193;SDS011;44967;48.598;15.650;2022-12-18T03:54:22;10.02;;;4.57;;
59193;SDS011;44967;48.598;15.650;2022-12-18T03:56:52;10.88;;;4.20;;
59193;SDS011;44967;48.598;15.650;2022-12-18T03:59:26;6.82;;;3.45;;
59193;SDS011;44967;48.598;15.650;2022-12-18T04:01:54;6.18;;;3.05;;
59193;SDS011;44967;48.598;15.650;2022-12-18T04:04:23;4.50;;;3.08;;
59193;SDS011;44967;48.598;15.650;2022-12-18T04:06:52;7.65;;;3.65;;
59193;SDS011;44967;48.598;15.650;2022-12-18T04:09:19;7.82;;;4.40;;
59193;SDS011;44967;48.598;15.650;2022-12-18T04:11:46;5.85;;;3.80;;
59193;SDS011;44967;48.598;15.650;2022-12-18T04:14:15;6.78;;;3.88;;
59193;SDS011;44967;48.598;15.650;2022-12-18T04:16:40;7.88;;;4.47;;
59193;SDS011;44967;48.598;15.650;2022-12-18T04:19:06;10.60;;;4.90;;
59193;SDS011;44967;48.598;15.650;2022-12-18T04:21:31;9.38;;;5.53;;
59193;SDS011;44967;48.598;15.650;2022-12-18T04:23:57;7.72;;;4.75;;
59193;SDS011;44967;48.598;15.650;2022-12-18T04:26:23;8.60;;;4.45;;
59193;SDS011;44967;48.598;15.650;2022-12-18T04:28:49;11.25;;;5.72;;
59193;SDS011;44967;48.598;15.650;2022-12-18T04:31:14;10.35;;;7.20;;
59193;SDS011;44967;48.598;15.650;2022-12-18T04:33:40;11.40;;;5.57;;
59193;SDS011;44967;48.598;15.650;2022-12-18T04:36:06;9.63;;;4.97;;
59193;SDS011;44967;48.598;15.650;2022-12-18T04:38:32;8.18;;;4.90;;
59193;SDS011;44967;48.598;15.650;2022-12-18T04:40:58;8.88;;;5.57;;
59193;SDS011;44967;48.598;15.650;2022-12-18T04:43:23;10.82;;;5.38;;
59193;SDS011;44967;48.598;15.650;2022-12-18T04:45:50;8.88;;;4.55;;
59193;SDS011;44967;48.598;15.650;2022-12-18T04:48:15;9.68;;;5.40;;
59193;SDS011;44967;48.598;15.650;2022-12-18T04:50:41;13.48;;;4.05;;
59193;SDS011;44967;48.598;15.650;2022-12-18T04:53:07;9.30;;;4.38;;
59193;SDS011;44967;48.598;15.650;2022-12-18T04:55:32;7.07;;;4.40;;
59193;SDS011;44967;48.598;15.650;2022-12-18T04:57:58;7.47;;;3.97;;
59193;SDS011;44967;48.598;15.650;2022-12-18T05:00:23;5.97;;;3.85;;
59193;SDS011;44967;48.598;15.650;2022-12-18T05:02:49;10.00;;;3.83;;
59193;SDS011;44967;48.598;15.650;2022-12-18T05:05:15;6.05;;;3.72;;
59193;SDS011;44967;48.598;15.650;2022-12-18T05:07:40;8.95;;;4.32;;
59193;SDS011;44967;48.598;15.650;2022-12-18T05:10:06;7.57;;;4.05;;
59193;SDS011;44967;48.598;15.650;2022-12-18T05:12:32;6.88;;;3.60;;
59193;SDS011;44967;48.598;15.650;2022-12-18T05:14:58;8.63;;;5.05;;
59193;SDS011;44967;48.598;15.650;2022-12-18T05:17:23;6.93;;;3.60;;
59193;SDS011;44967;48.598;15.650;2022-12-18T05:19:49;6.07;;;3.65;;
59193;SDS011;44967;48.598;15.650;2022-12-18T05:22:15;8.40;;;4.13;;
59193;SDS011;44967;48.598;15.650;2022-12-18T05:24:41;6.00;;;3.50;;
59193;SDS011;44967;48.598;15.650;2022-12-18T05:27:06;6.25;;;4.10;;
59193;SDS011;44967;48.598;15.650;2022-12-18T05:29:32;5.53;;;4.07;;
59193;SDS011;44967;48.598;15.650;2022-12-18T05:31:57;7.38;;;3.67;;
59193;SDS011;44967;48.598;15.650;2022-12-18T05:34:23;8.05;;;4.30;;
59193;SDS011;44967;48.598;15.650;2022-12-18T05:36:49;8.77;;;4.40;;
59193;SDS011;44967;48.598;15.650;2022-12-18T05:39:14;8.68;;;4.32;;
59193;SDS011;44967;48.598;15.650;2022-12-18T05:41:40;8.48;;;4.50;;
59193;SDS011;44967;48.598;15.650;2022-12-18T05:44:06;6.80;;;4.20;;
59193;SDS011;44967;48.598;15.650;2022-12-18T05:46:31;11.88;;;4.57;;
59193;SDS011;44967;48.598;15.650;2022-12-18T05:49:00;7.38;;;4.65;;
59193;SDS011;44967;48.598;15.650;2022-12-18T05:51:26;8.15;;;4.65;;
59193;SDS011;44967;48.598;15.650;2022-12-18T05:53:52;11.20;;;4.55;;
59193;SDS011;44967;48.598;15.650;2022-12-18T05:56:19;7.75;;;3.85;;
59193;SDS011;44967;48.598;15.650;2022-12-18T05:58:46;8.05;;;4.25;;
59193;SDS011;44967;48.598;15.650;2022-12-18T06:01:15;8.93;;;4.97;;
59193;SDS011;44967;48.598;15.650;2022-12-18T06:03:44;8.15;;;3.83;;
59193;SDS011;44967;48.598;15.650;2022-12-18T06:06:17;7.63;;;4.45;;
59193;SDS011;44967;48.598;15.650;2022-12-18T06:08:49;7.78;;;4.60;;
59193;SDS011;44967;48.598;15.650;2022-12-18T06:11:17;9.10;;;4.57;;
59193;SDS011;44967;48.598;15.650;2022-12-18T06:13:45;7.13;;;4.05;;
59193;SDS011;44967;48.598;15.650;2022-12-18T06:16:11;10.32;;;5.38;;
59193;SDS011;44967;48.598;15.650;2022-12-18T06:18:38;8.50;;;4.50;;
59193;SDS011;44967;48.598;15.650;2022-12-18T06:21:03;7.32;;;4.38;;
59193;SDS011;44967;48.598;15.650;2022-12-18T06:23:29;6.75;;;4.15;;
59193;SDS011;44967;48.598;15.650;2022-12-18T06:25:55;9.35;;;5.15;;
59193;SDS011;44967;48.598;15.650;2022-12-18T06:28:21;9.10;;;4.60;;
59193;SDS011;44967;48.598;15.650;2022-12-18T06:30:47;13.27;;;5.20;;
59193;SDS011;44967;48.598;15.650;2022-12-18T06:33:14;15.45;;;5.13;;
59193;SDS011;44967;48.598;15.650;2022-12-18T06:35:40;8.20;;;4.57;;
59193;SDS011;44967;48.598;15.650;2022-12-18T06:38:06;10.93;;;4.95;;
59193;SDS011;44967;48.598;15.650;2022-12-18T06:40:32;10.95;;;4.65;;
59193;SDS011;44967;48.598;15.650;2022-12-18T06:42:58;9.32;;;4.68;;
59193;SDS011;44967;48.598;15.650;2022-12-18T06:45:24;9.93;;;5.03;;
59193;SDS011;44967;48.598;15.650;2022-12-18T06:47:50;11.52;;;4.78;;
59193;SDS011;44967;48.598;15.650;2022-12-18T06:50:16;8.07;;;4.63;;
59193;SDS011;44967;48.598;15.650;2022-12-18T06:52:42;10.65;;;5.53;;
59193;SDS011;44967;48.598;15.650;2022-12-18T06:55:09;10.55;;;6.07;;
59193;SDS011;44967;48.598;15.650;2022-12-18T06:57:35;17.50;;;9.57;;
59193;SDS011;44967;48.598;15.650;2022-12-18T07:00:02;10.70;;;6.15;;
59193;SDS011;44967;48.598;15.650;2022-12-18T07:02:29;15.07;;;7.50;;
59193;SDS011;44967;48.598;15.650;2022-12-18T07:04:55;12.52;;;7.05;;
59193;SDS011;44967;48.598;15.650;2022-12-18T07:07:21;12.57;;;6.40;;
59193;SDS011;44967;48.598;15.650;2022-12-18T07:09:48;14.52;;;6.35;;
59193;SDS011;44967;48.598;15.650;2022-12-18T07:12:15;11.20;;;6.57;;
59193;SDS011;44967;48.598;15.650;2022-12-18T07:14:40;12.30;;;6.53;;
59193;SDS011;44967;48.598;15.650;2022-12-18T07:17:06;11.52;;;7.05;;
59193;SDS011;44967;48.598;15.650;2022-12-18T07:19:32;12.88;;;6.43;;
59193;SDS011;44967;48.598;15.650;2022-12-18T07:21:58;9.02;;;5.90;;
59193;SDS011;44967;48.598;15.650;2022-12-18T07:24:23;12.52;;;6.40;;
59193;SDS011;44967;48.598;15.650;2022-12-18T07:26:49;12.18;;;6.82;;
59193;SDS011;44967;48.598;15.650;2022-12-18T07:29:15;13.10;;;6.47;;
59193;SDS011;44967;48.598;15.650;2022-12-18T07:31:41;12.05;;;6.47;;
59193;SDS011;44967;48.598;15.650;2022-12-18T07:34:10;9.43;;;5.25;;
59193;SDS011;44967;48.598;15.650;2022-12-18T07:36:37;14.05;;;6.53;;
59193;SDS011;44967;48.598;15.650;2022-12-18T07:39:03;19.63;;;9.07;;
59193;SDS011;44967;48.598;15.650;2022-12-18T07:41:29;15.50;;;7.72;;
59193;SDS011;44967;48.598;15.650;2022-12-18T07:43:54;14.85;;;7.25;;
59193;SDS011;44967;48.598;15.650;2022-12-18T07:46:20;11.25;;;6.25;;
59193;SDS011;44967;48.598;15.650;2022-12-18T07:48:46;11.00;;;6.35;;
59193;SDS011;44967;48.598;15.650;2022-12-18T07:51:12;12.02;;;7.22;;
59193;SDS011;44967;48.598;15.650;2022-12-18T07:53:39;24.42;;;10.23;;
59193;SDS011;44967;48.598;15.650;2022-12-18T07:56:06;16.75;;;8.88;;
59193;SDS011;44967;48.598;15.650;2022-12-18T07:58:34;19.17;;;12.30;;
59193;SDS011;44967;48.598;15.650;2022-12-18T08:01:10;21.65;;;11.43;;
59193;SDS011;44967;48.598;15.650;2022-12-18T08:03:37;15.35;;;9.52;;
59193;SDS011;44967;48.598;15.650;2022-12-18T08:06:05;19.58;;;10.25;;
59193;SDS011;44967;48.598;15.650;2022-12-18T08:08:33;21.00;;;10.57;;
59193;SDS011;44967;48.598;15.650;2022-12-18T08:10:59;17.05;;;8.25;;
59193;SDS011;44967;48.598;15.650;2022-12-18T08:13:25;19.00;;;9.98;;
59193;SDS011;44967;48.598;15.650;2022-12-18T08:15:55;25.98;;;11.75;;
59193;SDS011;44967;48.598;15.650;2022-12-18T08:18:26;22.98;;;12.20;;
59193;SDS011;44967;48.598;15.650;2022-12-18T08:20:52;20.85;;;12.00;;
59193;SDS011;44967;48.598;15.650;2022-12-18T08:23:17;20.25;;;11.43;;
59193;SDS011;44967;48.598;15.650;2022-12-18T08:25:43;19.23;;;11.05;;
59193;SDS011;44967;48.598;15.650;2022-12-18T08:28:09;18.15;;;11.10;;
59193;SDS011;44967;48.598;15.650;2022-12-18T08:30:35;20.52;;;10.43;;
59193;SDS011;44967;48.598;15.650;2022-12-18T08:33:01;20.45;;;9.82;;
59193;SDS011;44967;48.598;15.650;2022-12-18T08:35:27;20.08;;;11.38;;
59193;SDS011;44967;48.598;15.650;2022-12-18T08:37:54;23.30;;;12.02;;
59193;SDS011;44967;48.598;15.650;2022-12-18T08:40:19;20.27;;;10.63;;
59193;SDS011;44967;48.598;15.650;2022-12-18T08:42:45;21.85;;;11.55;;
59193;SDS011;44967;48.598;15.650;2022-12-18T08:45:29;20.88;;;11.38;;
59193;SDS011;44967;48.598;15.650;2022-12-18T08:47:58;25.13;;;13.77;;
59193;SDS011;44967;48.598;15.650;2022-12-18T08:50:23;26.58;;;14.93;;
59193;SDS011;44967;48.598;15.650;2022-12-18T08:52:49;34.33;;;16.48;;
59193;SDS011;44967;48.598;15.650;2022-12-18T08:55:15;31.80;;;16.90;;
59193;SDS011;44967;48.598;15.650;2022-12-18T08:57:40;20.80;;;13.13;;
59193;SDS011;44967;48.598;15.650;2022-12-18T09:00:06;30.23;;;12.95;;
59193;SDS011;44967;48.598;15.650;2022-12-18T09:02:32;29.27;;;14.13;;
59193;SDS011;44967;48.598;15.650;2022-12-18T09:04:58;28.20;;;14.15;;
59193;SDS011;44967;48.598;15.650;2022-12-18T09:07:24;25.92;;;13.10;;
59193;SDS011;44967;48.598;15.650;2022-12-18T09:09:49;26.90;;;13.13;;
59193;SDS011;44967;48.598;15.650;2022-12-18T09:12:15;26.67;;;12.63;;
59193;SDS011;44967;48.598;15.650;2022-12-18T09:14:41;24.73;;;13.07;;
59193;SDS011;44967;48.598;15.650;2022-12-18T09:17:06;28.88;;;13.30;;
59193;SDS011;44967;48.598;15.650;2022-12-18T09:19:32;26.55;;;13.43;;
59193;SDS011;44967;48.598;15.650;2022-12-18T09:21:58;27.13;;;13.23;;
59193;SDS011;44967;48.598;15.650;2022-12-18T09:24:23;27.25;;;13.55;;
59193;SDS011;44967;48.598;15.650;2022-12-18T09:26:52;27.77;;;13.10;;
59193;SDS011;44967;48.598;15.650;2022-12-18T09:29:18;27.58;;;12.38;;
59193;SDS011;44967;48.598;15.650;2022-12-18T09:31:44;32.15;;;15.52;;
59193;SDS011;44967;48.598;15.650;2022-12-18T09:34:09;25.48;;;13.80;;
59193;SDS011;44967;48.598;15.650;2022-12-18T09:36:35;40.30;;;17.65;;
59193;SDS011;44967;48.598;15.650;2022-12-18T09:39:00;38.53;;;17.30;;
59193;SDS011;44967;48.598;15.650;2022-12-18T09:44:22;36.30;;;17.58;;
59193;SDS011;44967;48.598;15.650;2022-12-18T09:49:45;30.13;;;16.60;;
59193;SDS011;44967;48.598;15.650;2022-12-18T09:52:14;33.88;;;15.85;;
59193;SDS011;44967;48.598;15.650;2022-12-18T09:54:55;29.40;;;16.08;;
59193;SDS011;44967;48.598;15.650;2022-12-18T09:57:25;35.97;;;15.38;;
59193;SDS011;44967;48.598;15.650;2022-12-18T09:59:55;32.65;;;15.55;;
59193;SDS011;44967;48.598;15.650;2022-12-18T10:02:29;35.70;;;17.02;;
59193;SDS011;44967;48.598;15.650;2022-12-18T10:05:00;29.33;;;16.30;;
59193;SDS011;44967;48.598;15.650;2022-12-18T10:13:10;31.20;;;14.82;;
59193;SDS011;44967;48.598;15.650;2022-12-18T10:15:41;29.00;;;13.30;;
59193;SDS011;44967;48.598;15.650;2022-12-18T10:21:00;27.02;;;16.58;;
59193;SDS011;44967;48.598;15.650;2022-12-18T10:23:54;29.38;;;13.90;;
59193;SDS011;44967;48.598;15.650;2022-12-18T10:26:26;24.73;;;13.43;;
59193;SDS011;44967;48.598;15.650;2022-12-18T10:28:52;26.30;;;13.45;;
59193;SDS011;44967;48.598;15.650;2022-12-18T10:31:21;28.83;;;13.60;;
59193;SDS011;44967;48.598;15.650;2022-12-18T10:33:48;27.65;;;13.07;;
59193;SDS011;44967;48.598;15.650;2022-12-18T10:36:13;21.73;;;11.75;;
59193;SDS011;44967;48.598;15.650;2022-12-18T10:38:39;27.52;;;12.65;;
59193;SDS011;44967;48.598;15.650;2022-12-18T10:43:43;26.45;;;12.80;;
59193;SDS011;44967;48.598;15.650;2022-12-18T10:46:12;24.75;;;13.18;;
59193;SDS011;44967;48.598;15.650;2022-12-18T10:51:26;25.80;;;12.88;;
59193;SDS011;44967;48.598;15.650;2022-12-18T10:53:59;22.98;;;12.52;;
59193;SDS011;44967;48.598;15.650;2022-12-18T10:56:29;25.52;;;11.48;;
59193;SDS011;44967;48.598;15.650;2022-12-18T10:58:57;27.08;;;12.05;;
59193;SDS011;44967;48.598;15.650;2022-12-18T11:02:07;27.10;;;11.20;;
59193;SDS011;44967;48.598;15.650;2022-12-18T11:04:28;21.70;;;11.05;;
59193;SDS011;44967;48.598;15.650;2022-12-18T11:06:57;26.40;;;11.88;;
59193;SDS011;44967;48.598;15.650;2022-12-18T11:09:26;26.38;;;10.80;;
59193;SDS011;44967;48.598;15.650;2022-12-18T11:11:58;25.38;;;10.32;;
59193;SDS011;44967;48.598;15.650;2022-12-18T11:16:53;26.85;;;11.93;;
59193;SDS011;44967;48.598;15.650;2022-12-18T11:22:00;24.90;;;10.70;;
59193;SDS011;44967;48.598;15.650;2022-12-18T11:24:32;22.35;;;11.15;;
59193;SDS011;44967;48.598;15.650;2022-12-18T11:27:00;20.88;;;9.63;;
59193;SDS011;44967;48.598;15.650;2022-12-18T11:29:32;20.35;;;8.73;;
59193;SDS011;44967;48.598;15.650;2022-12-18T11:32:21;20.92;;;9.38;;
59193;SDS011;44967;48.598;15.650;2022-12-18T11:35:55;24.10;;;10.90;;
59193;SDS011;44967;48.598;15.650;2022-12-18T11:37:59;20.75;;;9.63;;
59193;SDS011;44967;48.598;15.650;2022-12-18T11:40:32;17.90;;;8.98;;
59193;SDS011;44967;48.598;15.650;2022-12-18T11:43:06;21.83;;;9.85;;
59193;SDS011;44967;48.598;15.650;2022-12-18T11:45:40;17.42;;;9.45;;
59193;SDS011;44967;48.598;15.650;2022-12-18T11:48:33;20.15;;;9.57;;
59193;SDS011;44967;48.598;15.650;2022-12-18T11:51:04;19.85;;;9.38;;
59193;SDS011;44967;48.598;15.650;2022-12-18T11:53:35;17.85;;;8.27;;
59193;SDS011;44967;48.598;15.650;2022-12-18T12:01:49;23.40;;;9.10;;
59193;SDS011;44967;48.598;15.650;2022-12-18T12:12:48;16.30;;;7.75;;
59193;SDS011;44967;48.598;15.650;2022-12-18T12:15:51;21.73;;;10.35;;
59193;SDS011;44967;48.598;15.650;2022-12-18T12:18:33;18.83;;;8.68;;
59193;SDS011;44967;48.598;15.650;2022-12-18T12:21:46;20.85;;;8.35;;
59193;SDS011;44967;48.598;15.650;2022-12-18T12:27:16;18.90;;;8.52;;
59193;SDS011;44967;48.598;15.650;2022-12-18T12:35:25;18.25;;;9.45;;
59193;SDS011;44967;48.598;15.650;2022-12-18T12:40:54;18.50;;;7.97;;
59193;SDS011;44967;48.598;15.650;2022-12-18T12:43:35;20.92;;;8.98;;
59193;SDS011;44967;48.598;15.650;2022-12-18T12:46:07;21.52;;;9.63;;
59193;SDS011;44967;48.598;15.650;2022-12-18T12:51:26;20.60;;;9.45;;
59193;SDS011;44967;48.598;15.650;2022-12-18T12:54:01;19.00;;;8.55;;
59193;SDS011;44967;48.598;15.650;2022-12-18T12:56:39;19.80;;;9.75;;
59193;SDS011;44967;48.598;15.650;2022-12-18T12:59:22;20.08;;;9.75;;
59193;SDS011;44967;48.598;15.650;2022-12-18T13:07:17;21.35;;;9.02;;
59193;SDS011;44967;48.598;15.650;2022-12-18T13:13:21;23.10;;;8.90;;
59193;SDS011;44967;48.598;15.650;2022-12-18T13:15:44;22.98;;;9.68;;
59193;SDS011;44967;48.598;15.650;2022-12-18T13:18:13;21.98;;;9.88;;
59193;SDS011;44967;48.598;15.650;2022-12-18T13:20:41;20.92;;;10.00;;
59193;SDS011;44967;48.598;15.650;2022-12-18T13:25:51;21.13;;;10.35;;
59193;SDS011;44967;48.598;15.650;2022-12-18T13:28:21;22.58;;;9.95;;
59193;SDS011;44967;48.598;15.650;2022-12-18T13:31:03;23.60;;;10.98;;
59193;SDS011;44967;48.598;15.650;2022-12-18T13:41:47;24.25;;;10.70;;
59193;SDS011;44967;48.598;15.650;2022-12-18T13:47:00;19.13;;;9.02;;
59193;SDS011;44967;48.598;15.650;2022-12-18T13:51:56;17.50;;;8.63;;
59193;SDS011;44967;48.598;15.650;2022-12-18T13:54:56;18.67;;;10.02;;
59193;SDS011;44967;48.598;15.650;2022-12-18T13:59:56;21.83;;;10.32;;
59193;SDS011;44967;48.598;15.650;2022-12-18T14:02:23;26.10;;;11.52;;
59193;SDS011;44967;48.598;15.650;2022-12-18T14:04:52;24.33;;;11.70;;
59193;SDS011;44967;48.598;15.650;2022-12-18T14:07:22;24.08;;;11.30;;
59193;SDS011;44967;48.598;15.650;2022-12-18T14:09:52;22.00;;;10.65;;
59193;SDS011;44967;48.598;15.650;2022-12-18T14:12:25;21.23;;;9.43;;
59193;SDS011;44967;48.598;15.650;2022-12-18T14:21:58;16.52;;;7.28;;
59193;SDS011;44967;48.598;15.650;2022-12-18T14:24:24;21.08;;;9.70;;
59193;SDS011;44967;48.598;15.650;2022-12-18T14:26:50;16.33;;;8.05;;
59193;SDS011;44967;48.598;15.650;2022-12-18T14:29:29;15.77;;;8.60;;
59193;SDS011;44967;48.598;15.650;2022-12-18T14:32:12;16.38;;;8.70;;
59193;SDS011;44967;48.598;15.650;2022-12-18T14:34:44;23.20;;;9.32;;
59193;SDS011;44967;48.598;15.650;2022-12-18T14:37:15;25.23;;;11.48;;
59193;SDS011;44967;48.598;15.650;2022-12-18T14:39:54;23.52;;;11.43;;
59193;SDS011;44967;48.598;15.650;2022-12-18T14:42:22;21.50;;;9.48;;
59193;SDS011;44967;48.598;15.650;2022-12-18T14:44:47;25.45;;;11.00;;
59193;SDS011;44967;48.598;15.650;2022-12-18T14:47:14;26.52;;;10.55;;
59193;SDS011;44967;48.598;15.650;2022-12-18T14:49:41;18.30;;;9.38;;
59193;SDS011;44967;48.598;15.650;2022-12-18T14:52:25;17.42;;;9.45;;
59193;SDS011;44967;48.598;15.650;2022-12-18T14:54:54;21.48;;;9.05;;
59193;SDS011;44967;48.598;15.650;2022-12-18T14:59:50;25.33;;;11.13;;
59193;SDS011;44967;48.598;15.650;2022-12-18T15:05:05;23.67;;;10.93;;
59193;SDS011;44967;48.598;15.650;2022-12-18T15:07:46;16.20;;;8.20;;
59193;SDS011;44967;48.598;15.650;2022-12-18T15:10:23;24.50;;;11.83;;
